Time;durP1;ratioP1;P1;durP2;ratioP2;P2;SDS_P1;SDS_P2;PMS_P1;PMS_P2;Temp;Humidity;BMP_temperature;BMP_pressure;BME280_temperature;BME280_humidity;BME280_pressure;Samples;Min_cycle;Max_cycle;Signal;HPM_P1;HPM_P2
2022/04/20 00:00:03;;;;;;;;;;;;;;;17.84;61.97;99019.44;2082286;28;20665;-54
2022/04/20 00:01:03;;;;;;;;;;;;;;;17.85;61.90;99021.13;2085065;28;20274;-54
2022/04/20 00:02:04;;;;;;;;;;;;;;;17.84;61.93;99016.69;2077790;28;19916;-54
2022/04/20 00:03:05;;;;;;;;;;;;;;;17.83;61.97;99011.41;2075933;28;20327;-54
2022/04/20 00:04:05;;;;;;;;;;;;;;;17.83;61.87;99016.84;2083687;28;19920;-52
2022/04/20 00:05:05;;;;;;;;;;;;;;;17.83;62.03;99017.69;2083295;28;20009;-52
2022/04/20 00:06:06;;;;;;;;;;;;;;;17.81;61.99;99014.31;2084739;28;19908;-52
2022/04/20 00:07:06;;;;;;;;;;;;;;;17.82;61.95;99002.38;2083240;28;20038;-53
2022/04/20 00:08:07;;;;;;;;;;;;;;;17.81;61.95;99008.88;2077169;28;20125;-53
2022/04/20 00:09:07;;;;;;;;;;;;;;;17.82;61.94;99006.97;2084026;28;19916;-54
2022/04/20 00:10:08;;;;;;;;;;;;;;;17.82;61.99;98996.94;2081849;28;19928;-54
2022/04/20 00:11:08;;;;;;;;;;;;;;;17.83;61.96;99000.50;2083604;28;19923;-54
2022/04/20 00:12:08;;;;;;;;;;;;;;;17.82;61.82;98999.66;2080064;28;19963;-54
2022/04/20 00:13:10;;;;;;;;;;;;;;;17.82;61.94;99004.25;2079799;28;19992;-54
2022/04/20 00:14:10;;;;;;;;;;;;;;;17.81;61.97;98995.22;2080474;28;19952;-54
2022/04/20 00:15:10;;;;;;;;;;;;;;;17.82;62.14;98996.06;2082336;28;20151;-54
2022/04/20 00:16:10;;;;;;;;;;;;;;;17.81;62.12;98997.97;2084109;28;19925;-54
2022/04/20 00:17:11;;;;;;;;;;;;;;;17.81;62.16;98997.97;2081407;28;19921;-54
2022/04/20 00:18:11;;;;;;;;;;;;;;;17.81;62.12;98997.97;2080988;28;20237;-54
2022/04/20 00:19:11;;;;;;;;;;;;;;;17.82;61.81;98998.81;2078605;28;19940;-54
2022/04/20 00:20:12;;;;;;;;;;;;;;;17.81;62.06;98989.78;2079636;28;20843;-54
2022/04/20 00:21:12;;;;;;;;;;;;;;;17.81;62.07;98988.91;2078925;28;20455;-54
2022/04/20 00:22:12;;;;;;;;;;;;;;;17.80;62.04;98988.06;2084027;28;19917;-54
2022/04/20 00:23:13;;;;;;;;;;;;;;;17.81;62.05;98981.59;2076184;28;19916;-54
2022/04/20 00:24:13;;;;;;;;;;;;;;;17.79;61.91;98976.28;2083939;28;19916;-54
2022/04/20 00:25:13;;;;;;;;;;;;;;;17.80;61.86;98974.44;2079463;28;20470;-54
2022/04/20 00:26:14;;;;;;;;;;;;;;;17.81;61.96;98981.59;2081615;28;20246;-53
2022/04/20 00:27:14;;;;;;;;;;;;;;;17.81;62.03;98978.88;2079263;28;19932;-54
2022/04/20 00:28:14;;;;;;;;;;;;;;;17.81;61.86;98976.16;2087009;28;19917;-54
2022/04/20 00:29:15;;;;;;;;;;;;;;;17.81;61.90;98976.16;2081009;28;20893;-54
2022/04/20 00:30:15;;;;;;;;;;;;;;;17.82;61.82;98972.41;2081447;28;20270;-54
2022/04/20 00:31:15;;;;;;;;;;;;;;;17.81;62.00;98973.44;2088503;28;19916;-54
2022/04/20 00:32:16;;;;;;;;;;;;;;;17.81;61.80;98976.16;2086931;28;20294;-54
2022/04/20 00:33:16;;;;;;;;;;;;;;;17.81;61.89;98970.69;2075357;28;20003;-53
2022/04/20 00:34:16;;;;;;;;;;;;;;;17.82;61.81;98975.13;2082268;28;20391;-54
2022/04/20 00:35:17;;;;;;;;;;;;;;;17.81;62.09;98969.81;2080823;28;19932;-53
2022/04/20 00:36:18;;;;;;;;;;;;;;;17.81;62.03;98969.81;2080947;28;19987;-53
2022/04/20 00:37:18;;;;;;;;;;;;;;;17.79;61.98;98969.97;2081868;28;19923;-54
2022/04/20 00:38:19;;;;;;;;;;;;;;;17.79;61.79;98972.72;2083890;28;20247;-53
2022/04/20 00:39:19;;;;;;;;;;;;;;;17.80;61.86;98977.16;2080456;28;19913;-54
2022/04/20 00:40:20;;;;;;;;;;;;;;;17.80;62.03;98979.88;2083205;28;19924;-53
2022/04/20 00:41:20;;;;;;;;;;;;;;;17.79;61.85;98972.72;2082437;28;19991;-54
2022/04/20 00:42:22;;;;;;;;;;;;;;;17.79;61.95;98968.09;2077287;28;20007;-54
2022/04/20 00:43:22;;;;;;;;;;;;;;;17.79;61.97;98969.97;2076821;28;19974;-52
2022/04/20 00:44:23;;;;;;;;;;;;;;;17.78;62.06;98963.69;2079779;28;19916;-53
2022/04/20 00:45:24;;;;;;;;;;;;;;;17.77;62.03;98958.38;2080327;28;20120;-54
2022/04/20 00:46:26;;;;;;;;;;;;;;;17.78;62.00;98960.06;2080684;28;20254;-54
2022/04/20 00:47:28;;;;;;;;;;;;;;;17.77;62.07;98955.66;2076652;28;20022;-54
2022/04/20 00:48:29;;;;;;;;;;;;;;;17.78;61.79;98954.63;2078215;28;19916;-53
2022/04/20 00:49:30;;;;;;;;;;;;;;;17.78;61.85;98954.63;2075981;28;19924;-53
2022/04/20 00:50:30;;;;;;;;;;;;;;;17.77;61.98;98945.59;2077203;28;19921;-53
2022/04/20 00:51:31;;;;;;;;;;;;;;;17.77;62.01;98952.94;2083478;28;19940;-54
2022/04/20 00:52:31;;;;;;;;;;;;;;;17.77;62.03;98948.31;2084055;28;19909;-54
2022/04/20 00:53:31;;;;;;;;;;;;;;;17.77;61.96;98947.47;2078543;28;20323;-54
2022/04/20 00:54:31;;;;;;;;;;;;;;;17.77;61.98;98948.31;2076506;28;19908;-53
2022/04/20 00:55:32;;;;;;;;;;;;;;;17.75;61.80;98939.47;2081970;28;19912;-54
2022/04/20 00:56:32;;;;;;;;;;;;;;;17.77;61.73;98942.03;2084247;28;19932;-53
2022/04/20 00:57:32;;;;;;;;;;;;;;;17.78;61.76;98946.44;2078334;28;19962;-54
2022/04/20 00:58:34;;;;;;;;;;;;;;;17.77;62.00;98936.59;2082717;28;19923;-53
2022/04/20 00:59:35;;;;;;;;;;;;;;;17.78;62.04;98935.53;2080441;28;20319;-54
2022/04/20 01:00:35;;;;;;;;;;;;;;;17.77;61.94;98931.97;2100213;28;19948;-54
2022/04/20 01:01:36;;;;;;;;;;;;;;;17.78;62.02;98935.53;2089994;28;19961;-53
2022/04/20 01:02:36;;;;;;;;;;;;;;;17.77;61.76;98925.69;2078627;28;20340;-54
2022/04/20 01:03:37;;;;;;;;;;;;;;;17.77;61.88;98931.13;2080068;28;19924;-54
2022/04/20 01:04:38;;;;;;;;;;;;;;;17.77;61.82;98926.53;2079442;28;19927;-55
2022/04/20 01:05:38;;;;;;;;;;;;;;;17.76;61.83;98932.13;2084616;28;20062;-53
2022/04/20 01:06:39;;;;;;;;;;;;;;;17.76;61.83;98935.75;2097777;28;20163;-54
2022/04/20 01:07:41;;;;;;;;;;;;;;;17.77;61.92;98928.41;2096191;28;19961;-54
2022/04/20 01:08:41;;;;;;;;;;;;;;;17.76;61.78;98929.41;2082857;28;20228;-53
2022/04/20 01:09:42;;;;;;;;;;;;;;;17.75;62.04;98928.56;2084367;28;19931;-52
2022/04/20 01:10:43;;;;;;;;;;;;;;;17.76;62.04;98922.09;2085147;28;19917;-53
2022/04/20 01:11:43;;;;;;;;;;;;;;;17.76;61.74;98918.50;2081138;28;20273;-53
2022/04/20 01:12:45;;;;;;;;;;;;;;;17.74;61.97;98910.50;2080638;28;19916;-53
2022/04/20 01:13:45;;;;;;;;;;;;;;;17.74;61.99;98905.06;2084698;28;19923;-53
2022/04/20 01:14:45;;;;;;;;;;;;;;;17.75;61.92;98900.47;2077732;28;19917;-54
2022/04/20 01:15:46;;;;;;;;;;;;;;;17.75;61.79;98897.72;2081199;28;20294;-54
2022/04/20 01:16:47;;;;;;;;;;;;;;;17.75;61.96;98897.72;2079705;28;20117;-53
2022/04/20 01:17:47;;;;;;;;;;;;;;;17.75;61.80;98905.91;2079094;28;20498;-53
2022/04/20 01:18:53;;;;;;;;;;;;;;;17.74;61.86;98905.06;2082912;28;21418;-55
2022/04/20 01:19:53;;;;;;;;;;;;;;;17.74;61.80;98910.50;2083661;28;19966;-55
2022/04/20 01:20:53;;;;;;;;;;;;;;;17.75;61.81;98919.53;2083189;28;20908;-54
2022/04/20 01:21:54;;;;;;;;;;;;;;;17.74;61.89;98915.97;2086145;28;19917;-53
2022/04/20 01:22:54;;;;;;;;;;;;;;;17.74;61.82;98915.13;2081987;28;19996;-51
2022/04/20 01:23:54;;;;;;;;;;;;;;;17.76;61.87;98923.97;2085896;28;19942;-54
2022/04/20 01:24:55;;;;;;;;;;;;;;;17.76;61.71;98923.97;2079616;28;20296;-53
2022/04/20 01:25:55;;;;;;;;;;;;;;;17.76;61.83;98926.69;2083477;28;19920;-54
2022/04/20 01:26:56;;;;;;;;;;;;;;;17.75;61.84;98922.25;2083895;28;20285;-53
2022/04/20 01:27:56;;;;;;;;;;;;;;;17.75;61.98;98911.38;2081011;28;20133;-53
2022/04/20 01:28:58;;;;;;;;;;;;;;;17.75;61.84;98919.53;2096777;28;19969;-54
2022/04/20 01:29:58;;;;;;;;;;;;;;;17.75;61.83;98917.66;2097821;27;19975;-54
2022/04/20 01:30:58;;;;;;;;;;;;;;;17.75;61.98;98916.81;2081040;28;19929;-54
2022/04/20 01:31:59;;;;;;;;;;;;;;;17.75;61.86;98911.38;2077761;28;19921;-54
2022/04/20 01:33:00;;;;;;;;;;;;;;;17.75;61.95;98905.91;2082762;28;20331;-53
2022/04/20 01:34:00;;;;;;;;;;;;;;;17.76;61.74;98907.59;2079757;28;19990;-53
2022/04/20 01:35:00;;;;;;;;;;;;;;;17.75;61.76;98905.91;2079955;28;19916;-53
2022/04/20 01:36:01;;;;;;;;;;;;;;;17.75;61.97;98901.31;2085775;28;19923;-54
2022/04/20 01:37:01;;;;;;;;;;;;;;;17.75;61.86;98905.91;2080327;28;19947;-54
2022/04/20 01:38:02;;;;;;;;;;;;;;;17.76;61.92;98896.69;2080173;28;19916;-54
2022/04/20 01:39:02;;;;;;;;;;;;;;;17.75;61.89;98900.47;2078437;28;20353;-53
2022/04/20 01:40:03;;;;;;;;;;;;;;;17.75;61.88;98900.47;2094833;28;19919;-54
2022/04/20 01:41:03;;;;;;;;;;;;;;;17.73;61.78;98897.03;2098812;28;20330;-55
2022/04/20 01:42:04;;;;;;;;;;;;;;;17.74;61.95;98904.22;2079231;28;20200;-53
2022/04/20 01:43:04;;;;;;;;;;;;;;;17.74;61.84;98907.78;2076858;28;20189;-54
2022/04/20 01:44:04;;;;;;;;;;;;;;;17.74;61.85;98906.94;2079079;28;20404;-53
2022/04/20 01:45:05;;;;;;;;;;;;;;;17.73;61.74;98907.94;2092108;28;19920;-51
2022/04/20 01:46:05;;;;;;;;;;;;;;;17.74;61.69;98904.22;2094231;27;19990;-53
2022/04/20 01:47:06;;;;;;;;;;;;;;;17.74;61.94;98912.41;2076538;28;20015;-54
2022/04/20 01:48:07;;;;;;;;;;;;;;;17.72;61.79;98907.09;2075620;28;20331;-52
2022/04/20 01:49:07;;;;;;;;;;;;;;;17.73;61.74;98902.50;2077807;28;19916;-54
2022/04/20 01:50:08;;;;;;;;;;;;;;;17.73;61.83;98897.03;2078720;28;20639;-53
2022/04/20 01:52:27;;;;;;;;;;;;;;;17.72;61.72;98895.34;2091988;28;19916;-53
2022/04/20 01:53:27;;;;;;;;;;;;;;;17.72;61.71;98895.34;2081771;28;20860;-54
2022/04/20 01:54:28;;;;;;;;;;;;;;;17.73;61.82;98894.31;2085237;28;20030;-53
2022/04/20 01:55:28;;;;;;;;;;;;;;;17.71;61.71;98891.78;2083875;28;19916;-54
2022/04/20 01:56:28;;;;;;;;;;;;;;;17.72;61.64;98884.47;2083918;28;19909;-53
2022/04/20 01:57:29;;;;;;;;;;;;;;;17.71;61.71;98882.72;2082484;28;20266;-54
2022/04/20 01:58:29;;;;;;;;;;;;;;;17.73;61.91;98886.16;2077753;28;20237;-53
2022/04/20 01:59:29;;;;;;;;;;;;;;;17.73;61.83;98886.16;2085335;28;19916;-52
2022/04/20 02:00:29;;;;;;;;;;;;;;;17.72;61.83;98879.00;2082575;28;19931;-53
2022/04/20 02:02:49;;;;;;;;;;;;;;;17.72;61.83;98889.91;2093073;28;19990;-54
2022/04/20 02:03:49;;;;;;;;;;;;;;;17.72;61.70;98889.91;2080039;28;20129;-53
2022/04/20 02:04:50;;;;;;;;;;;;;;;17.72;61.68;98881.72;2085463;28;19966;-53
2022/04/20 02:05:50;;;;;;;;;;;;;;;17.72;61.88;98884.47;2080613;28;19916;-53
2022/04/20 02:06:50;;;;;;;;;;;;;;;17.73;61.65;98880.69;2083992;28;20402;-54
2022/04/20 02:07:51;;;;;;;;;;;;;;;17.72;61.75;98879.00;2080792;28;20433;-53
2022/04/20 02:08:51;;;;;;;;;;;;;;;17.72;61.87;98884.47;2081813;28;20376;-53
2022/04/20 02:09:53;;;;;;;;;;;;;;;17.72;61.76;98879.00;2085568;28;19923;-53
2022/04/20 02:10:53;;;;;;;;;;;;;;;17.70;61.67;98872.88;2081502;28;19930;-53
2022/04/20 02:11:54;;;;;;;;;;;;;;;17.70;61.80;98870.97;2083420;28;19923;-52
2022/04/20 02:12:54;;;;;;;;;;;;;;;17.71;61.64;98866.38;2082753;28;19925;-53
2022/04/20 02:13:54;;;;;;;;;;;;;;;17.70;61.67;98854.63;2082558;28;19916;-53
2022/04/20 02:14:55;;;;;;;;;;;;;;;17.70;61.84;98865.53;2085955;28;20545;-53
2022/04/20 02:15:55;;;;;;;;;;;;;;;17.70;61.73;98861.97;2081111;28;19931;-54
2022/04/20 02:16:56;;;;;;;;;;;;;;;17.71;61.89;98877.28;2082248;28;19925;-53
2022/04/20 02:17:56;;;;;;;;;;;;;;;17.69;61.69;98868.44;2078732;28;19921;-53
2022/04/20 02:18:56;;;;;;;;;;;;;;;17.70;61.90;98881.88;2080796;28;20103;-53
2022/04/20 02:19:57;;;;;;;;;;;;;;;17.70;61.61;98878.31;2079509;28;19923;-54
2022/04/20 02:20:58;;;;;;;;;;;;;;;17.69;61.77;98880.19;2081808;28;19923;-52
2022/04/20 02:21:58;;;;;;;;;;;;;;;17.69;61.68;98885.66;2075965;28;19916;-53
2022/04/20 02:22:58;;;;;;;;;;;;;;;17.70;61.85;98879.16;2078412;28;19917;-54
2022/04/20 02:23:59;;;;;;;;;;;;;;;17.70;61.72;98875.59;2079275;28;19916;-54
2022/04/20 02:24:59;;;;;;;;;;;;;;;17.70;61.82;98872.88;2081427;28;19917;-54
2022/04/20 02:26:00;;;;;;;;;;;;;;;17.70;61.57;98870.16;2078977;28;20265;-53
2022/04/20 02:27:00;;;;;;;;;;;;;;;17.70;61.79;98875.59;2081983;28;19924;-54
2022/04/20 02:28:00;;;;;;;;;;;;;;;17.70;61.91;98870.16;2083238;28;20039;-53
2022/04/20 02:29:01;;;;;;;;;;;;;;;17.70;61.74;98870.97;2078666;28;19952;-53
2022/04/20 02:30:01;;;;;;;;;;;;;;;17.70;61.62;98868.25;2083794;28;20719;-53
2022/04/20 02:31:02;;;;;;;;;;;;;;;17.71;61.70;98866.38;2080760;28;20027;-52
2022/04/20 02:32:02;;;;;;;;;;;;;;;17.71;61.66;98869.09;2083715;28;20240;-53
2022/04/20 02:33:02;;;;;;;;;;;;;;;17.70;61.94;98853.78;2085939;28;19916;-54
2022/04/20 02:34:02;;;;;;;;;;;;;;;17.69;61.73;98858.41;2081546;28;19916;-53
2022/04/20 02:35:03;;;;;;;;;;;;;;;17.69;61.66;98854.81;2084307;28;20075;-53
2022/04/20 02:36:03;;;;;;;;;;;;;;;17.69;61.88;98865.72;2082441;28;20382;-53
2022/04/20 02:37:04;;;;;;;;;;;;;;;17.70;61.82;98868.25;2081209;28;19916;-51
2022/04/20 02:38:06;;;;;;;;;;;;;;;17.70;61.71;98865.53;2080124;28;19924;-54
2022/04/20 02:39:07;;;;;;;;;;;;;;;17.69;61.71;98852.94;2084182;28;19916;-53
2022/04/20 02:40:07;;;;;;;;;;;;;;;17.69;61.73;98860.28;2081213;28;20365;-53
2022/04/20 02:41:08;;;;;;;;;;;;;;;17.68;61.77;98850.38;2083896;28;20210;-52
2022/04/20 02:42:09;;;;;;;;;;;;;;;17.68;61.74;98848.50;2084439;28;19928;-52
2022/04/20 02:43:10;;;;;;;;;;;;;;;17.69;61.71;98849.38;2078070;28;20365;-53
2022/04/20 02:44:10;;;;;;;;;;;;;;;17.67;61.81;98844.09;2084063;28;19916;-53
2022/04/20 02:45:11;;;;;;;;;;;;;;;17.68;61.96;98847.66;2084727;28;19944;-54
2022/04/20 02:46:12;;;;;;;;;;;;;;;17.68;62.08;98844.94;2083830;28;19919;-52
2022/04/20 02:47:15;;;;;;;;;;;;;;;17.69;61.92;98846.66;2080318;28;19935;-56
2022/04/20 02:48:16;;;;;;;;;;;;;;;17.68;61.82;98850.38;2075627;28;19950;-53
2022/04/20 02:49:16;;;;;;;;;;;;;;;17.68;61.72;98844.94;2076378;28;20046;-52
2022/04/20 02:50:17;;;;;;;;;;;;;;;17.68;61.85;98853.09;2081924;28;19991;-52
2022/04/20 02:51:17;;;;;;;;;;;;;;;17.67;61.75;98843.25;2094851;27;19912;-52
2022/04/20 02:52:17;;;;;;;;;;;;;;;17.65;61.80;98839.81;2098530;28;20845;-54
2022/04/20 02:53:18;;;;;;;;;;;;;;;17.66;61.92;98858.72;2083363;28;19966;-54
2022/04/20 02:54:18;;;;;;;;;;;;;;;17.65;61.83;98846.13;2080979;28;20358;-52
2022/04/20 02:55:18;;;;;;;;;;;;;;;17.65;61.76;98856.19;2082333;28;19922;-53
2022/04/20 02:56:19;;;;;;;;;;;;;;;17.65;61.86;98853.44;2076284;28;19963;-54
2022/04/20 02:57:19;;;;;;;;;;;;;;;17.66;61.76;98857.88;2082528;28;19916;-54
2022/04/20 02:58:19;;;;;;;;;;;;;;;17.67;61.90;98859.59;2083711;28;20142;-54
2022/04/20 02:59:19;;;;;;;;;;;;;;;17.68;61.68;98864.00;2081955;28;19924;-53
2022/04/20 03:00:20;;;;;;;;;;;;;;;17.67;61.70;98854.13;2079816;28;19931;-54
2022/04/20 03:01:20;;;;;;;;;;;;;;;17.67;61.87;98859.59;2076446;28;20515;-53
2022/04/20 03:02:20;;;;;;;;;;;;;;;17.68;61.72;98861.28;2083703;28;19923;-53
2022/04/20 03:03:20;;;;;;;;;;;;;;;17.65;61.88;98857.03;2080701;28;19916;-53
2022/04/20 03:04:21;;;;;;;;;;;;;;;17.66;61.77;98863.31;2080713;28;19920;-53
2022/04/20 03:05:21;;;;;;;;;;;;;;;17.67;61.93;98865.88;2084464;28;19923;-53
2022/04/20 03:06:21;;;;;;;;;;;;;;;17.66;61.73;98857.88;2082060;28;19939;-54
2022/04/20 03:07:22;;;;;;;;;;;;;;;17.68;61.91;98864.00;2086215;28;19916;-53
2022/04/20 03:08:24;;;;;;;;;;;;;;;17.66;61.73;98847.81;2083233;28;19939;-54
2022/04/20 03:09:24;;;;;;;;;;;;;;;17.65;61.71;98846.13;2083877;28;19917;-53
2022/04/20 03:10:25;;;;;;;;;;;;;;;17.67;61.85;98854.13;2081267;28;19921;-54
2022/04/20 03:11:27;;;;;;;;;;;;;;;17.67;61.84;98843.25;2082465;28;19908;-54
2022/04/20 03:12:27;;;;;;;;;;;;;;;17.65;61.89;98834.38;2083563;28;20610;-53
2022/04/20 03:13:27;;;;;;;;;;;;;;;17.64;61.87;98838.09;2082901;28;19924;-54
2022/04/20 03:14:28;;;;;;;;;;;;;;;17.65;61.83;98839.81;2083793;28;19916;-53
2022/04/20 03:15:28;;;;;;;;;;;;;;;17.65;61.90;98834.38;2080598;28;19912;-54
2022/04/20 03:16:28;;;;;;;;;;;;;;;17.62;61.71;98834.72;2099080;28;19920;-53
2022/04/20 03:17:29;;;;;;;;;;;;;;;17.65;61.87;98828.94;2094551;28;19931;-54
2022/04/20 03:18:32;;;;;;;;;;;;;;;17.64;61.73;98838.09;2083043;28;20358;-54
2022/04/20 03:19:33;;;;;;;;;;;;;;;17.63;61.97;98842.72;2082553;28;19916;-54
2022/04/20 03:20:33;;;;;;;;;;;;;;;17.62;61.85;98840.19;2079570;28;20364;-53
2022/04/20 03:21:34;;;;;;;;;;;;;;;17.62;61.89;98843.75;2078171;28;20011;-53
2022/04/20 03:22:34;;;;;;;;;;;;;;;17.63;61.87;98842.72;2081006;28;20170;-53
2022/04/20 03:23:35;;;;;;;;;;;;;;;17.64;61.80;98840.81;2084919;28;19947;-54
2022/04/20 03:24:35;;;;;;;;;;;;;;;17.63;61.79;98837.25;2081807;28;20857;-55
2022/04/20 03:25:35;;;;;;;;;;;;;;;17.64;61.87;98838.09;2083219;28;19987;-54
2022/04/20 03:26:35;;;;;;;;;;;;;;;17.64;61.88;98840.81;2083359;28;20298;-54
2022/04/20 03:27:36;;;;;;;;;;;;;;;17.64;61.75;98838.09;2083408;28;19923;-54
2022/04/20 03:28:36;;;;;;;;;;;;;;;17.65;61.87;98845.28;2084540;28;20558;-54
2022/04/20 03:29:37;;;;;;;;;;;;;;;17.65;61.71;98839.81;2083628;28;20560;-54
2022/04/20 03:30:38;;;;;;;;;;;;;;;17.64;61.80;98843.56;2080541;28;19986;-54
2022/04/20 03:31:39;;;;;;;;;;;;;;;17.62;61.92;98837.44;2082435;28;20563;-54
2022/04/20 03:32:39;;;;;;;;;;;;;;;17.65;61.99;98837.09;2079040;28;20422;-54
2022/04/20 03:33:40;;;;;;;;;;;;;;;17.65;61.90;98834.38;2079261;28;20246;-54
2022/04/20 03:34:41;;;;;;;;;;;;;;;17.64;61.88;98838.09;2084401;28;20026;-54
2022/04/20 03:35:43;;;;;;;;;;;;;;;17.65;61.70;98839.81;2082444;28;19931;-53
2022/04/20 03:36:43;;;;;;;;;;;;;;;17.64;61.73;98838.09;2084714;28;19920;-54
2022/04/20 03:37:43;;;;;;;;;;;;;;;17.64;61.91;98835.38;2083821;28;20350;-54
2022/04/20 03:38:43;;;;;;;;;;;;;;;17.65;61.73;98839.81;2081624;28;20019;-53
2022/04/20 03:39:44;;;;;;;;;;;;;;;17.65;62.01;98839.81;2076331;28;20342;-54
2022/04/20 03:40:45;;;;;;;;;;;;;;;17.62;61.88;98830.13;2079019;28;19917;-54
2022/04/20 03:41:46;;;;;;;;;;;;;;;17.64;61.88;98821.75;2076618;28;19963;-54
2022/04/20 03:42:46;;;;;;;;;;;;;;;17.63;61.94;98825.53;2081682;28;19921;-55
2022/04/20 03:43:46;;;;;;;;;;;;;;;17.63;61.87;98826.34;2084249;28;19916;-54
2022/04/20 03:44:46;;;;;;;;;;;;;;;17.62;61.77;98813.78;2077435;28;19916;-55
2022/04/20 03:45:47;;;;;;;;;;;;;;;17.62;61.71;98808.31;2077065;28;19921;-54
2022/04/20 03:46:47;;;;;;;;;;;;;;;17.63;61.90;98820.06;2076777;28;19989;-54
2022/04/20 03:47:47;;;;;;;;;;;;;;;17.62;61.89;98823.81;2078301;28;20220;-54
2022/04/20 03:48:48;;;;;;;;;;;;;;;17.63;61.98;98820.06;2078601;28;20229;-53
2022/04/20 03:49:48;;;;;;;;;;;;;;;17.62;61.86;98823.81;2076293;28;20037;-54
2022/04/20 03:50:48;;;;;;;;;;;;;;;17.62;61.79;98818.38;2076471;28;20287;-55
2022/04/20 03:51:48;;;;;;;;;;;;;;;17.61;61.75;98822.94;2080343;28;19916;-54
2022/04/20 03:52:49;;;;;;;;;;;;;;;17.62;62.06;98829.28;2083389;28;19928;-54
2022/04/20 03:53:49;;;;;;;;;;;;;;;17.62;61.75;98823.81;2079244;28;20528;-54
2022/04/20 03:54:50;;;;;;;;;;;;;;;17.61;62.00;98828.41;2075204;28;19939;-53
2022/04/20 03:55:51;;;;;;;;;;;;;;;17.61;61.79;98836.56;2093341;28;19989;-54
2022/04/20 03:57:03;;;;;;;;;;;;;;;17.62;61.91;98834.72;2096084;28;19965;-54
2022/04/20 03:58:03;;;;;;;;;;;;;;;17.62;61.95;98823.81;2076398;28;19916;-54
2022/04/20 03:59:04;;;;;;;;;;;;;;;17.62;61.87;98834.72;2084530;28;19908;-53
2022/04/20 04:00:04;;;;;;;;;;;;;;;17.62;61.91;98840.19;2081556;28;20756;-54
2022/04/20 04:01:05;;;;;;;;;;;;;;;17.62;61.99;98840.19;2077557;28;20176;-53
2022/04/20 04:02:05;;;;;;;;;;;;;;;17.62;61.99;98851.06;2097414;28;19929;-53
2022/04/20 04:03:06;;;;;;;;;;;;;;;17.62;61.67;98842.91;2084797;28;20070;-55
2022/04/20 04:04:06;;;;;;;;;;;;;;;17.62;61.94;98848.34;2083057;28;19920;-53
2022/04/20 04:05:06;;;;;;;;;;;;;;;17.62;61.93;98835.56;2077442;28;19912;-54
2022/04/20 04:06:07;;;;;;;;;;;;;;;17.62;61.76;98837.44;2077097;28;19916;-52
2022/04/20 04:07:07;;;;;;;;;;;;;;;17.62;61.83;98843.75;2084002;28;19912;-53
2022/04/20 04:08:08;;;;;;;;;;;;;;;17.62;61.71;98845.63;2079807;28;19939;-53
2022/04/20 04:09:08;;;;;;;;;;;;;;;17.62;61.83;98841.03;2079599;28;19925;-53
2022/04/20 04:10:08;;;;;;;;;;;;;;;17.62;61.82;98845.63;2080573;28;20436;-53
2022/04/20 04:11:08;;;;;;;;;;;;;;;17.62;61.74;98848.34;2077359;28;20074;-53
2022/04/20 04:12:09;;;;;;;;;;;;;;;17.61;62.01;98841.19;2082070;28;19917;-54
2022/04/20 04:13:10;;;;;;;;;;;;;;;17.61;61.75;98838.47;2082833;28;20560;-54
2022/04/20 04:14:10;;;;;;;;;;;;;;;17.61;61.74;98849.34;2082218;28;19916;-54
2022/04/20 04:15:11;;;;;;;;;;;;;;;17.60;61.87;98839.50;2097709;28;19919;-54
2022/04/20 04:16:11;;;;;;;;;;;;;;;17.60;61.79;98836.75;2089935;28;19919;-54
2022/04/20 04:17:11;;;;;;;;;;;;;;;17.60;61.89;98847.66;2079114;28;19970;-54
2022/04/20 04:18:12;;;;;;;;;;;;;;;17.60;61.87;98842.22;2077911;28;19920;-54
2022/04/20 04:19:13;;;;;;;;;;;;;;;17.60;61.87;98848.50;2083298;28;20687;-53
2022/04/20 04:20:13;;;;;;;;;;;;;;;17.60;61.91;98847.66;2079546;28;20371;-54
2022/04/20 04:21:14;;;;;;;;;;;;;;;17.59;61.95;98835.91;2077898;28;19917;-53
2022/04/20 04:22:14;;;;;;;;;;;;;;;17.58;61.86;98840.50;2082161;28;19916;-54
2022/04/20 04:23:16;;;;;;;;;;;;;;;17.59;61.73;98844.09;2084901;28;19908;-54
2022/04/20 04:24:50;;;;;;;;;;;;;;;17.58;61.82;98840.50;2080842;28;20003;-54
2022/04/20 04:25:43;;;;;;;;;;;;;;;17.58;61.91;98840.50;2072081;28;19917;-53
2022/04/20 04:26:44;;;;;;;;;;;;;;;17.59;61.92;98852.28;2081556;28;19908;-55
2022/04/20 04:27:45;;;;;;;;;;;;;;;17.58;61.95;98845.94;2089771;28;19918;-54
2022/04/20 04:28:45;;;;;;;;;;;;;;;17.58;61.90;98839.66;2082676;28;21169;-55
2022/04/20 04:29:46;;;;;;;;;;;;;;;17.60;62.01;98842.22;2086128;28;20249;-52
2022/04/20 04:30:46;;;;;;;;;;;;;;;17.59;61.83;98838.66;2073396;28;20356;-52
2022/04/20 04:31:47;;;;;;;;;;;;;;;17.60;61.88;98847.66;2082938;28;19923;-54
2022/04/20 04:32:47;;;;;;;;;;;;;;;17.60;61.79;98836.75;2086461;28;20365;-54
2022/04/20 04:33:48;;;;;;;;;;;;;;;17.58;61.67;98840.50;2091094;28;19916;-54
2022/04/20 04:34:48;;;;;;;;;;;;;;;17.60;61.66;98836.75;2078607;28;20282;-53
2022/04/20 04:35:49;;;;;;;;;;;;;;;17.58;61.78;98835.03;2087870;28;19919;-55
2022/04/20 04:36:51;;;;;;;;;;;;;;;17.60;62.01;98836.75;2084450;28;20551;-54
2022/04/20 04:37:51;;;;;;;;;;;;;;;17.60;61.65;98844.94;2081427;28;20408;-53
2022/04/20 04:38:52;;;;;;;;;;;;;;;17.60;61.94;98850.38;2080463;28;19932;-54
2022/04/20 04:39:53;;;;;;;;;;;;;;;17.60;62.03;98847.66;2086295;28;20612;-54
2022/04/20 04:40:53;;;;;;;;;;;;;;;17.60;61.66;98847.66;2083305;28;19916;-52
2022/04/20 04:41:56;;;;;;;;;;;;;;;17.60;61.80;98850.38;2078320;28;20372;-54
2022/04/20 04:42:56;;;;;;;;;;;;;;;17.60;61.80;98850.38;2086015;28;19956;-52
2022/04/20 04:43:57;;;;;;;;;;;;;;;17.58;61.77;98845.94;2083114;28;19920;-54
2022/04/20 04:48:36;;;;;;;;;;;;;;;17.58;61.72;98843.22;2085888;28;21036;-54
2022/04/20 04:48:55;;;;;;;;;;;;;;;17.58;61.67;98835.03;2083058;28;19983;-54
2022/04/20 04:49:57;;;;;;;;;;;;;;;17.57;61.78;98844.25;2083543;28;19916;-53
2022/04/20 04:50:57;;;;;;;;;;;;;;;17.56;61.90;98837.13;2081744;28;20470;-52
2022/04/20 04:51:59;;;;;;;;;;;;;;;17.57;61.68;98835.22;2080417;28;20117;-54
2022/04/20 04:53:00;;;;;;;;;;;;;;;17.57;61.69;98832.50;2085453;28;20243;-55
2022/04/20 04:54:00;;;;;;;;;;;;;;;17.57;61.95;98843.41;2079190;28;19927;-52
2022/04/20 04:55:00;;;;;;;;;;;;;;;17.56;61.78;98844.41;2077985;28;19983;-53
2022/04/20 04:56:01;;;;;;;;;;;;;;;17.57;61.85;98841.53;2084017;28;20417;-55
2022/04/20 04:57:01;;;;;;;;;;;;;;;17.56;61.93;98848.00;2084813;28;19916;-54
2022/04/20 04:58:02;;;;;;;;;;;;;;;17.56;61.95;98848.00;2092102;28;19908;-53
2022/04/20 04:59:02;;;;;;;;;;;;;;;17.56;61.89;98856.19;2092578;28;20293;-54
2022/04/20 05:00:03;;;;;;;;;;;;;;;17.56;61.96;98850.75;2083649;28;19995;-54
2022/04/20 05:01:04;;;;;;;;;;;;;;;17.57;61.97;98846.97;2085836;28;19920;-54
2022/04/20 05:02:05;;;;;;;;;;;;;;;17.56;61.73;98842.56;2082048;28;20350;-54
2022/04/20 05:03:07;;;;;;;;;;;;;;;17.56;61.79;98848.00;2079934;28;19916;-54
2022/04/20 05:04:08;;;;;;;;;;;;;;;17.56;61.81;98842.56;2083123;28;19916;-54
2022/04/20 05:05:08;;;;;;;;;;;;;;;17.57;61.82;98846.97;2083478;28;19909;-53
2022/04/20 05:06:08;;;;;;;;;;;;;;;17.56;61.71;98842.56;2085440;28;20192;-52
2022/04/20 05:07:09;;;;;;;;;;;;;;;17.57;61.72;98854.31;2085404;28;19952;-54
2022/04/20 05:08:09;;;;;;;;;;;;;;;17.57;61.69;98849.69;2081276;28;19962;-52
2022/04/20 05:09:10;;;;;;;;;;;;;;;17.57;61.82;98854.31;2078538;28;19916;-54
2022/04/20 05:10:10;;;;;;;;;;;;;;;17.56;61.71;98845.28;2081013;28;19939;-54
2022/04/20 05:11:11;;;;;;;;;;;;;;;17.57;61.81;98854.31;2086596;28;19916;-53
2022/04/20 05:12:11;;;;;;;;;;;;;;;17.56;61.76;98850.75;2081216;28;19980;-54
2022/04/20 05:13:11;;;;;;;;;;;;;;;17.56;61.75;98849.84;2083668;28;19954;-54
2022/04/20 05:14:13;;;;;;;;;;;;;;;17.55;61.93;98857.19;2084693;28;19977;-53
2022/04/20 05:15:13;;;;;;;;;;;;;;;17.55;61.90;98846.28;2082388;28;20175;-54
2022/04/20 05:16:13;;;;;;;;;;;;;;;17.56;61.96;98852.59;2085816;28;19955;-53
2022/04/20 05:17:14;;;;;;;;;;;;;;;17.55;61.73;98851.75;2085612;28;19920;-53
2022/04/20 05:18:14;;;;;;;;;;;;;;;17.54;61.90;98855.50;2083113;28;19912;-53
2022/04/20 05:19:14;;;;;;;;;;;;;;;17.55;61.73;98846.28;2076969;28;19917;-53
2022/04/20 05:20:15;;;;;;;;;;;;;;;17.54;61.76;98858.22;2078959;28;19924;-52
2022/04/20 05:21:15;;;;;;;;;;;;;;;17.53;61.91;98853.78;2083658;28;20008;-54